Terminal Aerodrome Forecast
Issued by NWS

Home | Current Version | Previous Version | Text Only | Print | Product List | Glossary On
Versions: 1 2 3 4 5 6 7 8 9 10 11 12 13 14 15 16 17 18 19 20 21 22 23 24 25 26 27 28 29 30 31 32 33 34 35 36 37 38 39 40 41 42 43 44
115
FTUS42 KRAH 270521
TAFINT
TAF
KINT 270521Z 2706/2806 20005KT 6SM -RA BR BKN004 OVC040
     FM271500 20005KT P6SM OVC015
     FM271800 20004KT P6SM VCSH BKN050
      TEMPO 2721/2724 3SM -TSRA BKN030CB=

USA.gov is the U.S. government's official web portal to all federal, state and local government web resources and services.